createdAt,value
2022-12-11T00:00:26.559Z,97.60
2022-12-11T00:01:26.530Z,97.66
2022-12-11T00:02:26.597Z,97.66
2022-12-11T00:03:26.551Z,97.76
2022-12-11T00:04:26.482Z,97.76
2022-12-11T00:05:26.495Z,97.66
2022-12-11T00:06:26.493Z,97.66
2022-12-11T00:07:26.454Z,97.66
2022-12-11T00:08:26.513Z,97.45
2022-12-11T00:09:26.443Z,97.34
2022-12-11T00:10:26.421Z,97.45
2022-12-11T00:11:26.421Z,97.45
2022-12-11T00:12:26.428Z,97.45
2022-12-11T00:13:26.394Z,97.55
2022-12-11T00:14:26.415Z,97.61
2022-12-11T00:15:26.392Z,97.61
2022-12-11T00:16:27.283Z,97.61
2022-12-11T00:17:26.374Z,97.51
2022-12-11T00:18:26.333Z,97.51
2022-12-11T00:19:26.345Z,97.51
2022-12-11T00:20:26.355Z,97.51
2022-12-11T00:21:26.314Z,97.51
2022-12-11T00:22:26.334Z,97.51
2022-12-11T00:23:26.285Z,97.47
2022-12-11T00:24:26.281Z,97.25
2022-12-11T00:25:26.276Z,97.25
2022-12-11T00:26:26.286Z,97.15
2022-12-11T00:27:26.255Z,96.94
2022-12-11T00:28:26.245Z,96.83
2022-12-11T00:29:26.236Z,96.73
2022-12-11T00:30:26.215Z,96.62
2022-12-11T00:31:26.265Z,96.51
2022-12-11T00:32:28.308Z,96.41
2022-12-11T00:33:26.188Z,96.31
2022-12-11T00:34:26.170Z,96.31
2022-12-11T00:35:26.206Z,96.41
2022-12-11T00:36:26.147Z,96.41
2022-12-11T00:37:26.184Z,96.31
2022-12-11T00:38:26.148Z,96.20
2022-12-11T00:39:26.126Z,96.10
2022-12-11T00:40:26.104Z,96.20
2022-12-11T00:41:26.132Z,96.20
2022-12-11T00:42:26.079Z,96.10
2022-12-11T00:43:26.094Z,95.99
2022-12-11T00:44:26.086Z,95.99
2022-12-11T00:45:26.081Z,95.99
2022-12-11T00:46:26.037Z,96.10
2022-12-11T00:47:26.042Z,96.20
2022-12-11T00:48:26.005Z,96.20
2022-12-11T00:49:26.007Z,96.16
2022-12-11T00:50:26.024Z,96.05
2022-12-11T00:51:25.987Z,95.95
2022-12-11T00:52:25.965Z,95.95
2022-12-11T00:53:26.039Z,95.84
2022-12-11T00:54:25.945Z,95.64
2022-12-11T00:55:25.958Z,95.53
2022-12-11T00:56:25.948Z,95.53
2022-12-11T00:57:25.916Z,95.53
2022-12-11T00:58:25.909Z,95.74
2022-12-11T00:59:25.899Z,95.84
2022-12-11T01:00:25.917Z,95.84
2022-12-11T01:01:25.929Z,95.74
2022-12-11T01:02:25.905Z,95.74
2022-12-11T01:03:25.847Z,95.74
2022-12-11T01:04:25.841Z,95.74
2022-12-11T01:05:25.849Z,95.84
2022-12-11T01:06:25.846Z,95.74
2022-12-11T01:07:25.808Z,95.74
2022-12-11T01:08:25.866Z,95.64
2022-12-11T01:09:25.788Z,95.53
2022-12-11T01:10:25.831Z,95.53
2022-12-11T01:11:25.780Z,95.53
2022-12-11T01:12:25.788Z,95.53
2022-12-11T01:13:25.745Z,95.64
2022-12-11T01:14:25.770Z,95.64
2022-12-11T01:15:25.730Z,95.64
2022-12-11T01:16:25.754Z,95.64
2022-12-11T01:17:25.727Z,95.64
2022-12-11T01:18:25.727Z,95.74
2022-12-11T01:19:25.679Z,95.74
2022-12-11T01:20:25.687Z,95.74
2022-12-11T01:21:25.660Z,95.74
2022-12-11T01:22:25.650Z,95.64
2022-12-11T01:23:25.649Z,95.74
2022-12-11T01:24:25.655Z,95.74
2022-12-11T01:25:25.630Z,95.74
2022-12-11T01:26:25.610Z,95.84
2022-12-11T01:27:25.608Z,95.84
2022-12-11T01:28:25.583Z,95.64
2022-12-11T01:29:25.609Z,95.74
2022-12-11T01:30:25.683Z,95.95
2022-12-11T01:31:25.578Z,95.84
2022-12-11T01:32:25.553Z,95.74
2022-12-11T01:33:25.541Z,95.84
2022-12-11T01:34:25.520Z,96.05
2022-12-11T01:35:25.532Z,96.05
2022-12-11T01:36:25.557Z,96.05
2022-12-11T01:37:25.493Z,96.16
2022-12-11T01:38:25.494Z,96.26
2022-12-11T01:39:25.492Z,96.37
2022-12-11T01:40:25.461Z,96.37
2022-12-11T01:41:25.500Z,96.47
2022-12-11T01:42:25.441Z,96.47
2022-12-11T01:43:25.433Z,96.37
2022-12-11T01:44:25.433Z,96.47
2022-12-11T01:45:27.056Z,96.58
2022-12-11T01:46:25.488Z,96.69
2022-12-11T01:47:25.420Z,96.69
2022-12-11T01:48:25.371Z,96.69
2022-12-11T01:49:25.361Z,96.58
2022-12-11T01:50:25.374Z,96.58
2022-12-11T01:51:25.361Z,96.58
2022-12-11T01:52:25.395Z,96.58
2022-12-11T01:53:25.349Z,96.69
2022-12-11T01:54:25.323Z,96.69
2022-12-11T01:55:25.304Z,96.89
2022-12-11T01:56:25.297Z,96.89
2022-12-11T01:57:25.332Z,97.00
2022-12-11T01:58:25.273Z,97.00
2022-12-11T01:59:25.287Z,97.11
2022-12-11T02:00:25.256Z,97.00
2022-12-11T02:01:25.269Z,97.11
2022-12-11T02:02:25.310Z,97.11
2022-12-11T02:03:25.222Z,97.00
2022-12-11T02:04:25.206Z,97.00
2022-12-11T02:05:25.216Z,96.89
2022-12-11T02:06:25.190Z,96.79
2022-12-11T02:07:25.206Z,96.79
2022-12-11T02:08:25.204Z,96.69
2022-12-11T02:09:25.153Z,96.58
2022-12-11T02:10:25.152Z,96.58
2022-12-11T02:11:25.165Z,96.58
2022-12-11T02:12:25.163Z,96.58
2022-12-11T02:13:25.164Z,96.58
2022-12-11T02:14:25.125Z,96.58
2022-12-11T02:15:25.094Z,96.58
2022-12-11T02:16:25.120Z,96.58
2022-12-11T02:17:25.090Z,96.47
2022-12-11T02:18:25.116Z,96.47
2022-12-11T02:19:25.046Z,96.37
2022-12-11T02:20:25.057Z,96.37
2022-12-11T02:21:25.027Z,96.37
2022-12-11T02:22:25.023Z,96.37
2022-12-11T02:23:25.043Z,96.47
2022-12-11T02:24:24.996Z,96.47
2022-12-11T02:25:24.996Z,96.47
2022-12-11T02:26:25.009Z,96.47
2022-12-11T02:27:24.969Z,96.47
2022-12-11T02:28:24.976Z,96.37
2022-12-11T02:29:24.953Z,96.37
2022-12-11T02:30:24.942Z,96.37
2022-12-11T02:31:24.978Z,96.37
2022-12-11T02:32:24.943Z,96.47
2022-12-11T02:33:24.948Z,96.58
2022-12-11T02:34:25.004Z,96.58
2022-12-11T02:35:24.899Z,96.69
2022-12-11T02:36:24.886Z,96.79
2022-12-11T02:37:24.865Z,96.79
2022-12-11T02:38:24.862Z,96.79
2022-12-11T02:39:24.839Z,96.79
2022-12-11T02:40:24.856Z,96.89
2022-12-11T02:41:24.863Z,96.89
2022-12-11T02:42:24.820Z,96.89
2022-12-11T02:43:24.805Z,96.79
2022-12-11T02:44:24.786Z,96.83
2022-12-11T02:45:24.818Z,96.83
2022-12-11T02:46:24.757Z,96.83
2022-12-11T02:47:24.759Z,96.73
2022-12-11T02:48:24.759Z,96.62
2022-12-11T02:49:24.737Z,96.62
2022-12-11T02:50:24.759Z,96.73
2022-12-11T02:51:24.719Z,96.83
2022-12-11T02:52:24.698Z,96.94
2022-12-11T02:53:24.701Z,96.94
2022-12-11T02:54:24.696Z,96.83
2022-12-11T02:55:24.680Z,96.73
2022-12-11T02:56:24.666Z,96.83
2022-12-11T02:57:24.668Z,96.73
2022-12-11T02:58:24.639Z,96.83
2022-12-11T02:59:24.631Z,96.94
2022-12-11T03:00:24.769Z,96.94
2022-12-11T03:01:24.635Z,96.94
2022-12-11T03:02:24.671Z,97.05
2022-12-11T03:03:24.580Z,97.15
2022-12-11T03:04:24.571Z,97.15
2022-12-11T03:05:24.568Z,97.15
2022-12-11T03:06:24.570Z,97.15
2022-12-11T03:07:24.542Z,97.05
2022-12-11T03:08:24.579Z,97.15
2022-12-11T03:09:24.531Z,97.25
2022-12-11T03:10:24.501Z,97.36
2022-12-11T03:11:24.520Z,97.47
2022-12-11T03:12:24.502Z,97.67
2022-12-11T03:13:24.481Z,97.67
2022-12-11T03:14:24.468Z,97.67
2022-12-11T03:15:24.480Z,97.67
2022-12-11T03:16:24.496Z,97.67
2022-12-11T03:17:24.453Z,97.57
2022-12-11T03:18:24.421Z,97.57
2022-12-11T03:19:24.422Z,97.57
2022-12-11T03:20:24.404Z,97.57
2022-12-11T03:21:24.423Z,97.67
2022-12-11T03:22:24.381Z,97.67
2022-12-11T03:23:24.394Z,97.57
2022-12-11T03:24:24.365Z,97.57
2022-12-11T03:25:24.352Z,97.57
2022-12-11T03:26:24.341Z,97.57
2022-12-11T03:27:24.352Z,97.47
2022-12-11T03:28:24.311Z,97.47
2022-12-11T03:29:24.324Z,97.57
2022-12-11T03:30:24.366Z,97.57
2022-12-11T03:31:24.288Z,97.47
2022-12-11T03:32:24.262Z,97.47
2022-12-11T03:33:24.278Z,97.57
2022-12-11T03:34:24.268Z,97.57
2022-12-11T03:35:24.263Z,97.67
2022-12-11T03:36:24.234Z,97.67
2022-12-11T03:37:24.222Z,97.78
2022-12-11T03:38:24.204Z,97.88
2022-12-11T03:39:24.222Z,97.88
2022-12-11T03:40:24.209Z,97.88
2022-12-11T03:41:24.224Z,97.88
2022-12-11T03:42:24.162Z,97.99
2022-12-11T03:43:24.171Z,97.99
2022-12-11T03:44:24.146Z,98.10
2022-12-11T03:45:24.137Z,98.10
2022-12-11T03:46:24.182Z,98.10
2022-12-11T03:47:24.136Z,98.10
2022-12-11T03:48:24.101Z,98.30
2022-12-11T03:49:24.106Z,98.30
2022-12-11T03:50:24.075Z,98.41
2022-12-11T03:51:24.102Z,98.36
2022-12-11T03:52:24.074Z,98.41
2022-12-11T03:53:24.077Z,98.36
2022-12-11T03:54:24.058Z,98.47
2022-12-11T03:55:24.040Z,98.36
2022-12-11T03:56:24.024Z,98.36
2022-12-11T03:57:24.014Z,98.36
2022-12-11T03:58:24.000Z,98.36
2022-12-11T03:59:24.027Z,98.47
2022-12-11T04:00:23.982Z,98.47
2022-12-11T04:01:24.047Z,98.47
2022-12-11T04:02:23.968Z,98.47
2022-12-11T04:03:23.948Z,98.36
2022-12-11T04:04:23.991Z,98.36
2022-12-11T04:05:23.957Z,98.36
2022-12-11T04:06:23.914Z,98.30
2022-12-11T04:07:23.919Z,98.20
2022-12-11T04:08:23.998Z,98.20
2022-12-11T04:09:23.888Z,98.20
2022-12-11T04:10:23.884Z,98.30
2022-12-11T04:11:23.889Z,98.30
2022-12-11T04:12:23.840Z,98.41
2022-12-11T04:13:23.863Z,98.30
2022-12-11T04:14:23.825Z,98.30
2022-12-11T04:15:23.826Z,98.41
2022-12-11T04:16:23.826Z,98.41
2022-12-11T04:17:23.827Z,98.41
2022-12-11T04:18:23.787Z,98.52
2022-12-11T04:19:23.777Z,98.52
2022-12-11T04:20:23.787Z,98.62
2022-12-11T04:21:23.755Z,98.62
2022-12-11T04:22:23.748Z,98.72
2022-12-11T04:23:23.768Z,98.72
2022-12-11T04:24:23.717Z,98.72
2022-12-11T04:25:23.740Z,98.79
2022-12-11T04:26:23.720Z,98.79
2022-12-11T04:27:23.695Z,98.89
2022-12-11T04:28:23.682Z,98.79
2022-12-11T04:29:23.704Z,98.89
2022-12-11T04:30:23.666Z,99.00
2022-12-11T04:31:23.717Z,99.10
2022-12-11T04:32:23.629Z,99.21
2022-12-11T04:33:23.666Z,99.21
2022-12-11T04:34:23.622Z,99.21
2022-12-11T04:35:23.619Z,99.10
2022-12-11T04:36:23.590Z,99.00
2022-12-11T04:37:23.579Z,99.00
2022-12-11T04:38:23.557Z,99.00
2022-12-11T04:39:23.582Z,99.00
2022-12-11T04:40:23.549Z,98.95
2022-12-11T04:41:23.563Z,99.05
2022-12-11T04:42:23.554Z,99.05
2022-12-11T04:43:23.525Z,99.05
2022-12-11T04:44:23.510Z,99.05
2022-12-11T04:45:23.506Z,99.16
2022-12-11T04:46:23.514Z,99.16
2022-12-11T04:47:23.502Z,99.27
2022-12-11T04:48:23.487Z,99.27
2022-12-11T04:49:23.461Z,99.27
2022-12-11T04:50:23.441Z,99.33
2022-12-11T04:51:23.441Z,99.43
2022-12-11T04:52:23.422Z,99.43
2022-12-11T04:53:23.441Z,99.54
2022-12-11T04:54:23.449Z,99.64
2022-12-11T04:55:23.423Z,99.74
2022-12-11T04:56:23.391Z,99.85
2022-12-11T04:57:23.382Z,99.99
2022-12-11T04:58:23.376Z,99.99
2022-12-11T04:59:23.400Z,99.99
2022-12-11T05:00:23.332Z,99.99
2022-12-11T05:01:23.431Z,99.99
2022-12-11T05:02:23.364Z,99.99
2022-12-11T05:03:23.322Z,99.99
2022-12-11T05:04:23.364Z,99.99
2022-12-11T05:05:23.336Z,99.99
2022-12-11T05:06:23.290Z,99.99
2022-12-11T05:07:23.274Z,99.99
2022-12-11T05:08:23.300Z,99.99
2022-12-11T05:09:23.326Z,99.99
2022-12-11T05:10:23.288Z,99.99
2022-12-11T05:11:23.214Z,99.99
2022-12-11T05:12:23.204Z,99.99
2022-12-11T05:13:23.232Z,99.99
2022-12-11T05:14:23.229Z,99.99
2022-12-11T05:15:23.196Z,99.99
2022-12-11T05:16:23.258Z,99.99
2022-12-11T05:17:23.166Z,99.99
2022-12-11T05:18:23.175Z,99.99
2022-12-11T05:19:23.126Z,99.99
2022-12-11T05:20:23.120Z,99.99
2022-12-11T05:21:23.138Z,99.99
2022-12-11T05:22:23.103Z,99.99
2022-12-11T05:23:23.141Z,99.99
2022-12-11T05:24:23.085Z,99.99
2022-12-11T05:25:23.085Z,99.99
2022-12-11T05:26:23.075Z,99.99
2022-12-11T05:27:23.107Z,99.99
2022-12-11T05:28:23.047Z,99.99
2022-12-11T05:29:23.028Z,99.99
2022-12-11T05:30:23.015Z,99.99
2022-12-11T05:31:23.042Z,99.99
2022-12-11T05:32:22.985Z,99.99
2022-12-11T05:33:23.027Z,99.99
2022-12-11T05:34:22.965Z,99.99
2022-12-11T05:35:22.966Z,99.99
2022-12-11T05:36:22.957Z,99.99
2022-12-11T05:37:22.959Z,99.99
2022-12-11T05:38:22.928Z,99.99
2022-12-11T05:39:22.916Z,99.99
2022-12-11T05:40:22.929Z,99.99
2022-12-11T05:41:22.907Z,99.99
2022-12-11T05:42:28.560Z,99.99
2022-12-11T05:43:23.920Z,99.99
2022-12-11T05:44:22.868Z,99.99
2022-12-11T05:45:22.854Z,99.99
2022-12-11T05:46:22.917Z,99.99
2022-12-11T05:47:22.827Z,99.99
2022-12-11T05:48:22.846Z,99.99
2022-12-11T05:49:27.435Z,99.99
2022-12-11T05:50:23.811Z,99.99
2022-12-11T05:51:22.797Z,99.99
2022-12-11T05:52:22.796Z,99.99
2022-12-11T05:53:22.797Z,99.99
2022-12-11T05:54:22.769Z,99.99
2022-12-11T05:55:22.761Z,99.99
2022-12-11T05:56:22.741Z,99.99
2022-12-11T05:57:22.748Z,99.99
2022-12-11T05:58:22.759Z,99.99
2022-12-11T05:59:22.710Z,99.99
2022-12-11T06:00:22.727Z,99.99
2022-12-11T06:01:22.680Z,99.99
2022-12-11T06:02:22.781Z,99.99
2022-12-11T06:03:22.679Z,99.99
2022-12-11T06:04:22.656Z,99.99
2022-12-11T06:05:22.660Z,99.99
2022-12-11T06:06:22.636Z,99.99
2022-12-11T06:07:22.616Z,99.99
2022-12-11T06:08:22.758Z,99.99
2022-12-11T06:09:22.590Z,99.99
2022-12-11T06:10:22.610Z,99.99
2022-12-11T06:11:24.353Z,99.99
2022-12-11T06:12:22.573Z,99.99
2022-12-11T06:13:22.578Z,99.99
2022-12-11T06:14:22.559Z,99.99
2022-12-11T06:15:22.542Z,99.99
2022-12-11T06:16:22.633Z,99.99
2022-12-11T06:17:22.511Z,99.99
2022-12-11T06:18:22.501Z,99.99
2022-12-11T06:19:22.509Z,99.99
2022-12-11T06:20:22.482Z,99.99
2022-12-11T06:21:22.471Z,99.99
2022-12-11T06:22:22.462Z,99.99
2022-12-11T06:23:22.453Z,99.99
2022-12-11T06:24:22.431Z,99.99
2022-12-11T06:25:22.471Z,99.99
2022-12-11T06:26:22.437Z,99.99
2022-12-11T06:27:22.413Z,99.99
2022-12-11T06:28:22.435Z,99.99
2022-12-11T06:29:22.422Z,99.99
2022-12-11T06:30:22.396Z,99.99
2022-12-11T06:31:23.443Z,99.99
2022-12-11T06:32:22.350Z,99.99
2022-12-11T06:33:22.351Z,99.99
2022-12-11T06:34:22.341Z,99.99
2022-12-11T06:35:22.343Z,99.99
2022-12-11T06:36:22.347Z,99.99
2022-12-11T06:37:22.295Z,99.99
2022-12-11T06:38:22.292Z,99.99
2022-12-11T06:39:22.308Z,99.99
2022-12-11T06:40:22.285Z,99.99
2022-12-11T06:41:22.280Z,99.99
2022-12-11T06:42:22.274Z,99.99
2022-12-11T06:43:22.245Z,99.99
2022-12-11T06:44:22.234Z,99.99
2022-12-11T06:45:22.226Z,99.99
2022-12-11T06:46:22.241Z,99.99
2022-12-11T06:47:22.233Z,99.99
2022-12-11T06:48:22.197Z,99.99
2022-12-11T06:49:22.164Z,99.99
2022-12-11T06:50:22.173Z,99.99
2022-12-11T06:51:22.158Z,99.99
2022-12-11T06:52:22.145Z,99.99
2022-12-11T06:53:22.145Z,99.99
2022-12-11T06:54:22.214Z,99.99
2022-12-11T06:55:22.106Z,99.99
2022-12-11T06:56:22.084Z,99.99
2022-12-11T06:57:22.094Z,99.99
2022-12-11T06:58:22.075Z,99.99
2022-12-11T06:59:22.097Z,99.99
2022-12-11T07:00:22.057Z,99.99
2022-12-11T07:01:22.123Z,99.99
2022-12-11T07:02:22.119Z,99.99
2022-12-11T07:03:22.029Z,99.99
2022-12-11T07:04:22.040Z,99.99
2022-12-11T07:05:22.028Z,99.99
2022-12-11T07:06:21.989Z,99.99
2022-12-11T07:07:21.991Z,99.99
2022-12-11T07:08:22.014Z,99.99
2022-12-11T07:09:21.956Z,99.99
2022-12-11T07:10:22.021Z,99.99
2022-12-11T07:11:21.946Z,99.99
2022-12-11T07:12:21.919Z,99.99
2022-12-11T07:13:21.931Z,99.99
2022-12-11T07:14:21.896Z,99.99
2022-12-11T07:15:21.896Z,99.99
2022-12-11T07:16:21.977Z,99.99
2022-12-11T07:17:21.892Z,99.99
2022-12-11T07:18:21.857Z,99.99
2022-12-11T07:19:21.948Z,99.99
2022-12-11T07:20:21.847Z,99.99
2022-12-11T07:21:21.836Z,99.99
2022-12-11T07:22:21.870Z,99.99
2022-12-11T07:23:21.808Z,99.99
2022-12-11T07:24:21.797Z,99.99
2022-12-11T07:25:21.779Z,99.99
2022-12-11T07:26:21.778Z,99.99
2022-12-11T07:27:21.791Z,99.99
2022-12-11T07:28:21.754Z,99.99
2022-12-11T07:29:21.740Z,99.99
2022-12-11T07:30:21.754Z,99.99
2022-12-11T07:31:21.868Z,99.99
2022-12-11T07:32:21.874Z,99.99
2022-12-11T07:33:21.708Z,99.99
2022-12-11T07:34:21.679Z,99.99
2022-12-11T07:35:21.709Z,99.99
2022-12-11T07:36:21.670Z,99.99
2022-12-11T07:37:21.736Z,99.99
2022-12-11T07:38:21.657Z,99.99
2022-12-11T07:39:21.652Z,99.99
2022-12-11T07:40:21.620Z,99.99
2022-12-11T07:41:21.620Z,99.99
2022-12-11T07:42:21.626Z,99.99
2022-12-11T07:43:21.745Z,99.99
2022-12-11T07:44:21.589Z,99.99
2022-12-11T07:45:21.580Z,99.99
2022-12-11T07:46:21.738Z,99.99
2022-12-11T07:47:21.559Z,99.99
2022-12-11T07:48:21.549Z,99.99
2022-12-11T07:49:21.581Z,99.99
2022-12-11T07:50:21.668Z,99.99
2022-12-11T07:51:21.511Z,99.99
2022-12-11T07:52:21.496Z,99.99
2022-12-11T07:53:21.509Z,99.99
2022-12-11T07:54:21.483Z,99.99
2022-12-11T07:55:22.552Z,99.99
2022-12-11T07:56:21.462Z,99.99
2022-12-11T07:57:21.461Z,99.99
2022-12-11T07:58:21.470Z,99.99
2022-12-11T07:59:21.719Z,99.99
2022-12-11T08:00:21.422Z,99.99
2022-12-11T08:01:21.566Z,99.99
2022-12-11T08:02:21.430Z,99.99
2022-12-11T08:03:21.401Z,99.99
2022-12-11T08:04:21.385Z,99.99
2022-12-11T08:05:21.394Z,99.99
2022-12-11T08:06:21.371Z,99.99
2022-12-11T08:07:21.373Z,99.99
2022-12-11T08:08:21.409Z,99.99
2022-12-11T08:09:21.545Z,99.99
2022-12-11T08:10:21.303Z,99.99
2022-12-11T08:11:21.310Z,99.99
2022-12-11T08:12:21.296Z,99.99
2022-12-11T08:13:21.311Z,99.99
2022-12-11T08:14:21.266Z,99.99
2022-12-11T08:15:21.268Z,99.99
2022-12-11T08:16:21.301Z,99.99
2022-12-11T08:17:25.903Z,99.99
2022-12-11T08:18:22.255Z,99.99
2022-12-11T08:19:21.219Z,99.99
2022-12-11T08:20:21.206Z,99.99
2022-12-11T08:21:21.199Z,99.99
2022-12-11T08:22:21.185Z,99.99
2022-12-11T08:23:21.165Z,99.99
2022-12-11T08:24:21.195Z,99.99
2022-12-11T08:25:21.156Z,99.99
2022-12-11T08:26:21.143Z,99.99
2022-12-11T08:27:21.138Z,99.99
2022-12-11T08:28:21.131Z,99.99
2022-12-11T08:29:21.105Z,99.99
2022-12-11T08:30:21.140Z,99.99
2022-12-11T08:31:21.148Z,99.99
2022-12-11T08:32:21.083Z,99.99
2022-12-11T08:33:21.074Z,99.99
2022-12-11T08:34:21.077Z,99.99
2022-12-11T08:35:21.140Z,99.99
2022-12-11T08:36:21.098Z,99.99
2022-12-11T08:37:21.028Z,99.99
2022-12-11T08:38:25.392Z,99.99
2022-12-11T08:39:23.785Z,99.99
2022-12-11T08:40:21.014Z,99.99
2022-12-11T08:41:22.710Z,99.99
2022-12-11T08:42:21.006Z,99.99
2022-12-11T08:43:20.956Z,99.99
2022-12-11T08:44:20.960Z,99.99
2022-12-11T08:45:20.957Z,99.99
2022-12-11T08:46:20.962Z,99.99
2022-12-11T08:47:20.938Z,99.99
2022-12-11T08:48:20.939Z,99.99
2022-12-11T08:49:20.906Z,99.99
2022-12-11T08:50:20.908Z,99.99
2022-12-11T08:51:20.857Z,99.99
2022-12-11T08:52:20.901Z,99.99
2022-12-11T08:53:20.871Z,99.99
2022-12-11T08:54:20.841Z,99.99
2022-12-11T08:55:20.869Z,99.99
2022-12-11T08:56:20.829Z,99.99
2022-12-11T08:57:20.798Z,99.99
2022-12-11T08:58:20.860Z,99.99
2022-12-11T08:59:20.782Z,99.99
2022-12-11T09:00:20.815Z,99.99
2022-12-11T09:01:21.888Z,99.99
2022-12-11T09:02:22.379Z,99.99
2022-12-11T09:03:20.741Z,99.99
2022-12-11T09:04:21.098Z,99.99
2022-12-11T09:05:20.793Z,99.99
2022-12-11T09:06:20.901Z,99.99
2022-12-11T09:07:20.707Z,99.99
2022-12-11T09:08:20.807Z,99.99
2022-12-11T09:09:20.728Z,99.99
2022-12-11T09:10:27.505Z,99.99
2022-12-11T09:11:20.655Z,99.99
2022-12-11T09:12:20.689Z,99.99
2022-12-11T09:13:20.631Z,99.99
2022-12-11T09:14:20.642Z,99.99
2022-12-11T09:15:20.633Z,99.99
2022-12-11T09:16:20.714Z,99.99
2022-12-11T09:17:20.622Z,99.99
2022-12-11T09:18:20.613Z,99.99
2022-12-11T09:19:20.582Z,99.99
2022-12-11T09:20:20.631Z,99.99
2022-12-11T09:21:20.568Z,99.99
2022-12-11T09:22:20.581Z,99.99
2022-12-11T09:23:20.552Z,99.99
2022-12-11T09:24:20.523Z,99.99
2022-12-11T09:25:20.511Z,99.99
2022-12-11T09:26:20.552Z,99.99
2022-12-11T09:27:20.494Z,99.99
2022-12-11T09:28:20.495Z,99.99
2022-12-11T09:29:20.488Z,99.99
2022-12-11T09:30:20.528Z,99.99
2022-12-11T09:31:20.501Z,99.99
2022-12-11T09:32:20.455Z,99.99
2022-12-11T09:33:20.424Z,99.99
2022-12-11T09:34:23.626Z,99.99
2022-12-11T09:35:21.425Z,99.99
2022-12-11T09:36:21.344Z,99.99
2022-12-11T09:37:20.386Z,99.99
2022-12-11T09:38:20.373Z,99.99
2022-12-11T09:39:20.408Z,99.99
2022-12-11T09:40:20.352Z,99.99
2022-12-11T09:41:20.352Z,99.99
2022-12-11T09:42:20.333Z,99.99
2022-12-11T09:43:20.322Z,99.99
2022-12-11T09:44:20.317Z,99.99
2022-12-11T09:45:20.352Z,99.99
2022-12-11T09:46:24.433Z,99.99
2022-12-11T09:47:20.461Z,99.99
2022-12-11T09:48:20.285Z,99.99
2022-12-11T09:49:20.280Z,99.99
2022-12-11T09:50:20.266Z,99.99
2022-12-11T09:51:20.255Z,99.99
2022-12-11T09:52:20.216Z,99.99
